Time;durP1;ratioP1;P1;durP2;ratioP2;P2;SDS_P1;SDS_P2;PMS_P1;PMS_P2;Temp;Humidity;BMP_temperature;BMP_pressure;BME280_temperature;BME280_humidity;BME280_pressure;Samples;Min_cycle;Max_cycle;Signal;HPM_P1;HPM_P2
2023/02/27 00:03:25;;;;;;;;;;;;;;;-1.74;63.34;98523.47;5107225;28;19934;-57
2023/02/27 00:05:55;;;;;;;;;;;;;;;-1.79;63.67;98515.31;5103817;28;19947;-57
2023/02/27 00:08:22;;;;;;;;;;;;;;;-1.73;63.66;98519.75;5106072;28;20357;-56
2023/02/27 00:10:50;;;;;;;;;;;;;;;-1.90;63.78;98519.47;5112067;28;19924;-57
2023/02/27 00:13:19;;;;;;;;;;;;;;;-1.80;63.79;98525.16;5102624;28;19942;-57
2023/02/27 00:15:48;;;;;;;;;;;;;;;-1.86;63.74;98526.00;5096036;28;20303;-57
2023/02/27 00:18:16;;;;;;;;;;;;;;;-1.79;63.45;98524.09;5102706;28;19928;-58
2023/02/27 00:20:45;;;;;;;;;;;;;;;-1.85;63.93;98528.44;5107889;28;20001;-57
2023/02/27 00:23:14;;;;;;;;;;;;;;;-1.85;64.17;98523.13;5101268;28;19934;-56
2023/02/27 00:25:42;;;;;;;;;;;;;;;-1.74;63.39;98532.28;5089116;28;19951;-57
2023/02/27 00:28:13;;;;;;;;;;;;;;;-1.87;63.62;98529.69;5103959;28;19989;-57
2023/02/27 00:31:06;;;;;;;;;;;;;;;-1.89;63.81;98521.91;5107276;28;19924;-57
2023/02/27 00:33:38;;;;;;;;;;;;;;;-1.91;63.68;98524.00;5093218;28;19923;-58
2023/02/27 00:36:10;;;;;;;;;;;;;;;-1.78;63.60;98523.06;5106459;28;20034;-57
2023/02/27 00:38:38;;;;;;;;;;;;;;;-1.83;63.53;98522.91;5094351;28;19958;-57
2023/02/27 00:41:06;;;;;;;;;;;;;;;-1.82;64.02;98529.84;5100369;28;19936;-57
2023/02/27 00:43:35;;;;;;;;;;;;;;;-1.79;63.37;98532.09;5110001;28;20347;-57
2023/02/27 00:46:03;;;;;;;;;;;;;;;-1.77;63.74;98535.34;5075566;28;19928;-57
2023/02/27 00:48:31;;;;;;;;;;;;;;;-1.86;63.84;98534.00;5084921;28;19938;-57
2023/02/27 00:50:59;;;;;;;;;;;;;;;-1.82;63.88;98526.38;5111806;28;19930;-58
2023/02/27 00:53:28;;;;;;;;;;;;;;;-1.91;63.80;98531.16;5082298;28;20325;-57
2023/02/27 00:55:57;;;;;;;;;;;;;;;-1.87;63.65;98530.50;5108089;28;20019;-57
2023/02/27 00:58:25;;;;;;;;;;;;;;;-1.96;64.00;98531.00;5081964;28;19925;-57
2023/02/27 01:00:54;;;;;;;;;;;;;;;-1.97;64.15;98524.03;5102734;28;19931;-57
2023/02/27 01:03:22;;;;;;;;;;;;;;;-1.88;63.83;98534.19;5087331;28;19969;-57
2023/02/27 01:05:50;;;;;;;;;;;;;;;-1.94;64.27;98537.72;5101072;28;19923;-58
2023/02/27 01:08:19;;;;;;;;;;;;;;;-1.83;63.45;98532.75;5104837;28;19924;-57
2023/02/27 01:10:48;;;;;;;;;;;;;;;-1.88;63.95;98528.88;5096029;28;19927;-57
2023/02/27 01:13:18;;;;;;;;;;;;;;;-1.93;63.74;98526.03;5091608;28;20376;-57
2023/02/27 01:15:46;;;;;;;;;;;;;;;-2.02;64.50;98513.22;5082932;28;19931;-58
2023/02/27 01:18:14;;;;;;;;;;;;;;;-1.87;63.86;98513.72;5085077;28;20537;-58
2023/02/27 01:20:42;;;;;;;;;;;;;;;-1.89;63.92;98511.25;5088658;28;19930;-58
2023/02/27 01:23:12;;;;;;;;;;;;;;;-2.00;63.98;98508.50;5100487;28;20338;-57
2023/02/27 01:25:43;;;;;;;;;;;;;;;-2.02;64.85;98510.56;5078909;28;19950;-58
2023/02/27 01:28:12;;;;;;;;;;;;;;;-2.02;64.10;98516.69;5091828;28;19977;-57
2023/02/27 01:30:48;;;;;;;;;;;;;;;-2.11;64.75;98516.13;5103749;28;19924;-57
2023/02/27 01:33:17;;;;;;;;;;;;;;;-2.08;64.74;98520.19;5103812;28;19981;-57
2023/02/27 01:38:37;;;;;;;;;;;;;;;-2.06;64.80;98518.16;5082609;28;19970;-57
2023/02/27 01:41:06;;;;;;;;;;;;;;;-1.92;64.60;98526.84;5083677;28;19932;-58
2023/02/27 01:43:49;;;;;;;;;;;;;;;-2.05;64.42;98516.31;5085191;28;19928;-57
2023/02/27 01:46:18;;;;;;;;;;;;;;;-2.08;65.04;98517.53;5067370;28;19928;-57
2023/02/27 01:48:46;;;;;;;;;;;;;;;-1.97;64.99;98518.69;5080500;28;19970;-57
2023/02/27 01:51:14;;;;;;;;;;;;;;;-1.90;64.02;98514.16;5103305;28;20010;-57
2023/02/27 01:53:42;;;;;;;;;;;;;;;-1.99;64.02;98520.75;5079455;28;19924;-56
2023/02/27 01:56:14;;;;;;;;;;;;;;;-2.07;64.65;98523.69;5074165;28;19925;-57
2023/02/27 01:58:42;;;;;;;;;;;;;;;-2.14;64.64;98521.88;5076013;28;19932;-57
2023/02/27 02:04:05;;;;;;;;;;;;;;;-2.19;65.02;98531.53;5087503;28;19928;-57
2023/02/27 02:06:59;;;;;;;;;;;;;;;-2.09;64.54;98528.41;5096988;28;19929;-57
2023/02/27 02:09:27;;;;;;;;;;;;;;;-2.22;64.91;98532.78;5074316;28;19924;-57
2023/02/27 02:11:57;;;;;;;;;;;;;;;-2.04;64.98;98540.03;5064549;28;20386;-57
2023/02/27 02:14:26;;;;;;;;;;;;;;;-2.02;64.74;98543.34;5079519;28;19932;-58
2023/02/27 02:17:05;;;;;;;;;;;;;;;-2.05;64.43;98548.25;5089916;28;19924;-58
2023/02/27 02:19:51;;;;;;;;;;;;;;;-2.10;65.03;98546.22;5084694;28;19943;-57
2023/02/27 02:22:40;;;;;;;;;;;;;;;-2.25;65.33;98549.19;5090297;28;19924;-57
2023/02/27 02:25:16;;;;;;;;;;;;;;;-2.13;64.96;98558.13;5033607;28;19928;-57
2023/02/27 02:27:47;;;;;;;;;;;;;;;-2.22;65.50;98555.94;5083501;28;20278;-57
2023/02/27 02:30:34;;;;;;;;;;;;;;;-2.15;65.26;98552.19;5086746;28;19924;-57
2023/02/27 02:33:50;;;;;;;;;;;;;;;-2.27;65.83;98555.75;5081466;28;19928;-57
2023/02/27 02:36:36;;;;;;;;;;;;;;;-2.24;65.50;98555.31;5087308;28;19924;-57
2023/02/27 02:39:11;;;;;;;;;;;;;;;-2.31;65.88;98566.00;5080893;28;20010;-57
2023/02/27 02:41:43;;;;;;;;;;;;;;;-2.31;65.89;98560.69;5091365;28;19954;-57
2023/02/27 02:44:13;;;;;;;;;;;;;;;-2.38;66.26;98559.91;5090145;28;19970;-57
2023/02/27 02:46:42;;;;;;;;;;;;;;;-2.29;65.98;98569.28;5080402;28;20316;-57
2023/02/27 02:49:12;;;;;;;;;;;;;;;-2.32;65.99;98559.06;5101899;28;19931;-57
2023/02/27 02:51:41;;;;;;;;;;;;;;;-2.25;65.61;98567.81;5091149;28;19924;-58
2023/02/27 02:54:11;;;;;;;;;;;;;;;-2.28;65.49;98562.13;5103318;28;19951;-58
2023/02/27 02:57:05;;;;;;;;;;;;;;;-2.37;65.76;98558.88;5089533;28;19950;-57
2023/02/27 02:59:36;;;;;;;;;;;;;;;-2.35;65.92;98569.28;5098624;28;19924;-58
2023/02/27 03:02:05;;;;;;;;;;;;;;;-2.38;66.17;98562.56;5078350;28;19928;-57
2023/02/27 03:04:35;;;;;;;;;;;;;;;-2.54;66.46;98560.38;5109769;28;19927;-56
2023/02/27 03:07:04;;;;;;;;;;;;;;;-2.51;66.53;98565.25;5080435;28;20021;-57
2023/02/27 03:09:34;;;;;;;;;;;;;;;-2.47;66.61;98559.31;5110295;28;20293;-56
2023/02/27 03:12:02;;;;;;;;;;;;;;;-2.60;66.79;98570.03;5093795;28;19932;-57
2023/02/27 03:14:31;;;;;;;;;;;;;;;-2.64;67.04;98566.97;5081960;28;20358;-57
2023/02/27 03:17:00;;;;;;;;;;;;;;;-2.69;67.04;98572.09;5101762;28;19940;-58
2023/02/27 03:19:29;;;;;;;;;;;;;;;-2.49;66.34;98579.19;5100730;28;20372;-57
2023/02/27 03:21:58;;;;;;;;;;;;;;;-2.55;66.44;98580.03;5088696;28;20015;-57
2023/02/27 03:24:28;;;;;;;;;;;;;;;-2.54;66.79;98589.66;5081467;28;19931;-57
2023/02/27 03:26:58;;;;;;;;;;;;;;;-2.59;66.77;98584.13;5091320;28;19969;-57
2023/02/27 03:29:27;;;;;;;;;;;;;;;-2.68;66.91;98579.03;5095140;28;19932;-57
2023/02/27 03:31:56;;;;;;;;;;;;;;;-2.64;67.00;98582.91;5093905;28;19947;-57
2023/02/27 03:34:25;;;;;;;;;;;;;;;-2.66;67.16;98590.31;5075078;28;19936;-58
2023/02/27 03:36:54;;;;;;;;;;;;;;;-2.70;66.78;98588.25;5105638;28;20368;-57
2023/02/27 03:39:25;;;;;;;;;;;;;;;-2.77;67.25;98582.97;5094592;28;19946;-57
2023/02/27 03:41:55;;;;;;;;;;;;;;;-2.84;67.24;98591.97;5107351;28;20301;-57
2023/02/27 03:44:46;;;;;;;;;;;;;;;-2.84;67.49;98597.28;5098251;28;19924;-57
2023/02/27 03:47:15;;;;;;;;;;;;;;;-2.80;67.46;98593.19;5102821;28;19925;-57
2023/02/27 03:49:43;;;;;;;;;;;;;;;-2.81;66.97;98586.25;5081336;28;19931;-57
2023/02/27 03:52:11;;;;;;;;;;;;;;;-2.84;67.44;98603.44;5087162;28;20325;-57
2023/02/27 03:54:41;;;;;;;;;;;;;;;-2.87;67.26;98598.53;5098861;28;19973;-58
2023/02/27 03:57:10;;;;;;;;;;;;;;;-2.88;67.61;98601.38;5093914;28;19928;-57
2023/02/27 03:59:39;;;;;;;;;;;;;;;-2.84;67.28;98605.28;5096835;28;20041;-57
2023/02/27 04:02:09;;;;;;;;;;;;;;;-2.87;67.20;98601.19;5100138;28;19924;-57
2023/02/27 04:04:39;;;;;;;;;;;;;;;-2.76;66.84;98608.53;5105287;28;19924;-58
2023/02/27 04:07:28;;;;;;;;;;;;;;;-2.93;67.05;98599.34;5099391;28;19930;-57
2023/02/27 04:10:11;;;;;;;;;;;;;;;-2.94;67.03;98597.72;5103270;28;19930;-57
2023/02/27 04:12:56;;;;;;;;;;;;;;;-2.85;67.02;98606.31;5068723;28;19968;-57
2023/02/27 04:15:26;;;;;;;;;;;;;;;-2.86;67.24;98604.69;5080932;28;19924;-57
2023/02/27 04:17:56;;;;;;;;;;;;;;;-2.95;67.35;98602.22;5101524;28;19924;-57
2023/02/27 04:20:29;;;;;;;;;;;;;;;-2.98;68.21;98605.31;5082085;28;19928;-58
2023/02/27 04:23:03;;;;;;;;;;;;;;;-2.93;67.35;98602.84;5109974;28;19924;-57
2023/02/27 04:25:40;;;;;;;;;;;;;;;-2.94;67.56;98608.34;5103077;28;19932;-57
2023/02/27 04:28:16;;;;;;;;;;;;;;;-3.03;67.67;98609.63;5098411;28;19928;-57
2023/02/27 04:31:09;;;;;;;;;;;;;;;-2.99;67.75;98608.16;5104572;28;19923;-58
2023/02/27 04:33:41;;;;;;;;;;;;;;;-2.98;67.60;98612.47;5097781;28;19931;-58
2023/02/27 04:36:11;;;;;;;;;;;;;;;-3.01;67.76;98619.00;5103258;28;19930;-57
2023/02/27 04:38:41;;;;;;;;;;;;;;;-3.04;67.57;98618.59;5091302;28;20385;-57
2023/02/27 04:41:10;;;;;;;;;;;;;;;-2.99;68.17;98622.25;5103482;28;20287;-60
2023/02/27 04:43:38;;;;;;;;;;;;;;;-3.01;67.32;98626.16;5108183;28;19924;-57
2023/02/27 04:46:06;;;;;;;;;;;;;;;-3.13;68.55;98625.97;5112216;28;19949;-57
2023/02/27 04:48:34;;;;;;;;;;;;;;;-3.16;68.83;98626.38;5101712;28;19969;-57
2023/02/27 04:51:05;;;;;;;;;;;;;;;-2.98;68.04;98631.09;5106060;28;19923;-57
2023/02/27 04:53:35;;;;;;;;;;;;;;;-3.10;68.65;98630.88;5103286;28;19934;-57
2023/02/27 04:56:04;;;;;;;;;;;;;;;-3.07;68.57;98627.81;5104075;28;19928;-57
2023/02/27 04:58:34;;;;;;;;;;;;;;;-3.07;68.36;98630.47;5101834;28;19924;-56
2023/02/27 05:01:03;;;;;;;;;;;;;;;-3.14;68.65;98623.50;5096798;28;20304;-57
2023/02/27 05:03:32;;;;;;;;;;;;;;;-3.21;68.91;98634.97;5104644;28;19927;-57
2023/02/27 05:06:01;;;;;;;;;;;;;;;-3.14;69.00;98628.81;5090895;28;19931;-56
2023/02/27 05:08:33;;;;;;;;;;;;;;;-3.12;69.14;98634.75;5101727;28;19935;-57
2023/02/27 05:11:02;;;;;;;;;;;;;;;-3.09;68.63;98637.00;5111483;28;20027;-57
2023/02/27 05:13:34;;;;;;;;;;;;;;;-3.13;68.97;98635.78;5098186;28;19924;-57
2023/02/27 05:16:04;;;;;;;;;;;;;;;-3.11;68.40;98633.75;5094513;28;19950;-57
2023/02/27 05:18:32;;;;;;;;;;;;;;;-3.05;68.10;98635.56;5095981;28;19947;-56
2023/02/27 05:21:26;;;;;;;;;;;;;;;-3.08;68.60;98643.97;5101358;28;19931;-57
2023/02/27 05:23:59;;;;;;;;;;;;;;;-3.00;67.83;98641.09;5083528;28;19924;-57
2023/02/27 05:26:28;;;;;;;;;;;;;;;-3.01;68.28;98652.75;5097335;28;19932;-57
2023/02/27 05:28:58;;;;;;;;;;;;;;;-3.02;67.61;98643.97;5104907;28;20588;-56
2023/02/27 05:31:28;;;;;;;;;;;;;;;-3.01;67.94;98652.75;5110965;28;20303;-57
2023/02/27 05:33:57;;;;;;;;;;;;;;;-3.06;68.00;98652.53;5110812;28;19924;-57
2023/02/27 05:36:27;;;;;;;;;;;;;;;-3.05;68.58;98643.53;5104895;28;19969;-57
2023/02/27 05:38:56;;;;;;;;;;;;;;;-3.06;67.95;98647.22;5105830;28;19923;-61
2023/02/27 05:41:28;;;;;;;;;;;;;;;-3.04;67.72;98653.16;5108012;28;19924;-57
2023/02/27 05:43:57;;;;;;;;;;;;;;;-3.07;67.74;98650.91;5104549;28;19963;-59
2023/02/27 05:46:25;;;;;;;;;;;;;;;-3.03;67.70;98660.13;5090344;28;19931;-57
2023/02/27 05:48:54;;;;;;;;;;;;;;;-3.16;67.80;98664.41;5103048;28;19924;-57
2023/02/27 05:51:22;;;;;;;;;;;;;;;-3.16;68.01;98661.75;5111151;28;19924;-57
2023/02/27 05:53:50;;;;;;;;;;;;;;;-3.13;67.54;98667.69;5106235;28;20403;-57
2023/02/27 05:56:18;;;;;;;;;;;;;;;-2.87;66.70;98677.50;5116716;28;19931;-57
2023/02/27 05:58:50;;;;;;;;;;;;;;;-2.99;67.28;98671.97;5114578;28;19931;-57
2023/02/27 06:01:43;;;;;;;;;;;;;;;-2.93;66.68;98669.31;5110299;28;19935;-57
2023/02/27 06:04:13;;;;;;;;;;;;;;;-3.13;67.75;98670.34;5105210;28;19973;-58
2023/02/27 06:06:41;;;;;;;;;;;;;;;-2.94;67.38;98672.16;5095861;28;20318;-57
2023/02/27 06:09:10;;;;;;;;;;;;;;;-2.90;66.74;98674.22;5114046;28;19930;-57
2023/02/27 06:11:38;;;;;;;;;;;;;;;-3.10;67.22;98683.22;5091964;28;19923;-57
2023/02/27 06:14:08;;;;;;;;;;;;;;;-3.16;67.71;98684.84;5101351;28;19924;-57
2023/02/27 06:16:36;;;;;;;;;;;;;;;-3.23;67.41;98684.84;5098595;28;19924;-57
2023/02/27 06:19:06;;;;;;;;;;;;;;;-3.24;67.54;98677.91;5092071;28;19924;-61
2023/02/27 06:21:34;;;;;;;;;;;;;;;-3.31;68.38;98677.06;5109265;28;19923;-58
2023/02/27 06:24:02;;;;;;;;;;;;;;;-3.12;67.69;98690.59;5106738;28;19924;-58
2023/02/27 06:26:30;;;;;;;;;;;;;;;-3.24;67.40;98690.38;5099166;28;19924;-57
2023/02/27 06:28:59;;;;;;;;;;;;;;;-3.21;67.03;98693.44;5099969;28;19924;-57
2023/02/27 06:31:29;;;;;;;;;;;;;;;-2.94;66.48;98693.44;5114126;28;19930;-57
2023/02/27 06:33:57;;;;;;;;;;;;;;;-3.17;67.36;98689.34;5104457;28;19969;-57
2023/02/27 06:36:27;;;;;;;;;;;;;;;-3.21;68.08;98698.75;5099005;28;19929;-58
2023/02/27 06:38:56;;;;;;;;;;;;;;;-3.17;67.76;98699.97;5107736;28;20363;-57
2023/02/27 06:41:24;;;;;;;;;;;;;;;-2.95;67.06;98700.59;5104850;28;19924;-57
2023/02/27 06:43:55;;;;;;;;;;;;;;;-2.87;66.21;98698.78;5108834;28;19924;-57
2023/02/27 06:46:24;;;;;;;;;;;;;;;-2.91;66.23;98704.47;5106349;28;19942;-57
2023/02/27 06:48:54;;;;;;;;;;;;;;;-2.91;66.59;98699.16;5085322;28;19931;-58
2023/02/27 06:51:22;;;;;;;;;;;;;;;-3.00;66.83;98703.03;5111270;28;20015;-57
2023/02/27 06:53:50;;;;;;;;;;;;;;;-2.82;66.54;98707.75;5107334;28;19923;-57
2023/02/27 06:56:18;;;;;;;;;;;;;;;-2.81;66.84;98704.06;5109672;28;20273;-57
2023/02/27 06:58:46;;;;;;;;;;;;;;;-2.77;66.21;98710.63;5090380;28;19941;-57
2023/02/27 07:01:14;;;;;;;;;;;;;;;-2.79;65.84;98710.00;5111723;28;19931;-60
2023/02/27 07:04:07;;;;;;;;;;;;;;;-2.77;65.84;98704.47;5103327;28;19923;-57
2023/02/27 07:06:35;;;;;;;;;;;;;;;-2.72;65.36;98697.50;5076553;28;19924;-56
2023/02/27 07:09:23;;;;;;;;;;;;;;;-2.77;65.80;98700.00;5105580;28;20372;-57
2023/02/27 07:11:51;;;;;;;;;;;;;;;-2.67;65.42;98700.34;5110896;28;20208;-57
2023/02/27 07:17:21;;;;;;;;;;;;;;;-2.59;64.76;98695.88;5086676;28;19924;-57
2023/02/27 07:20:34;;;;;;;;;;;;;;;-2.60;65.03;98694.25;5104450;28;20323;-57
2023/02/27 07:23:03;;;;;;;;;;;;;;;-2.54;64.60;98688.91;5089159;28;19945;-58
2023/02/27 07:25:32;;;;;;;;;;;;;;;-2.56;64.66;98695.44;5112348;28;19928;-56
2023/02/27 07:28:00;;;;;;;;;;;;;;;-2.44;64.26;98691.13;5113738;28;19924;-57
2023/02/27 07:30:29;;;;;;;;;;;;;;;-2.38;64.06;98677.81;5103657;28;20019;-57
2023/02/27 07:32:57;;;;;;;;;;;;;;;-2.39;63.49;98686.00;5103318;28;19924;-57
2023/02/27 07:35:30;;;;;;;;;;;;;;;-2.34;63.84;98688.84;5108354;28;19928;-57
2023/02/27 07:37:58;;;;;;;;;;;;;;;-2.29;63.58;98693.53;5111177;28;20265;-57
2023/02/27 07:46:13;;;;;;;;;;;;;;;-2.06;62.97;98709.03;5104499;28;19924;-57
2023/02/27 07:48:42;;;;;;;;;;;;;;;-2.09;62.18;98696.94;5105226;28;19924;-57
2023/02/27 07:51:10;;;;;;;;;;;;;;;-2.04;62.80;98705.13;5110273;28;20591;-57
2023/02/27 07:53:38;;;;;;;;;;;;;;;-1.85;62.15;98709.56;5099400;28;19934;-57
2023/02/27 07:56:08;;;;;;;;;;;;;;;-1.78;61.34;98703.38;5105867;28;19930;-58
2023/02/27 07:58:35;;;;;;;;;;;;;;;-1.74;61.71;98700.09;5099468;28;19931;-56
2023/02/27 08:01:04;;;;;;;;;;;;;;;-1.67;61.01;98700.84;5103122;28;19928;-57
2023/02/27 08:03:32;;;;;;;;;;;;;;;-1.52;60.72;98702.44;5093576;28;19930;-53
2023/02/27 08:06:02;;;;;;;;;;;;;;;-1.39;60.55;98707.66;5106901;28;19934;-54
2023/02/27 08:08:30;;;;;;;;;;;;;;;-1.26;60.19;98706.78;5090280;28;19931;-54
2023/02/27 08:10:58;;;;;;;;;;;;;;;-1.13;59.22;98709.34;5112000;28;20297;-54
2023/02/27 08:13:28;;;;;;;;;;;;;;;-1.12;59.36;98698.47;5111953;28;20277;-55
2023/02/27 08:19:08;;;;;;;;;;;;;;;-0.98;58.19;98698.38;5107307;28;19923;-54
2023/02/27 08:21:37;;;;;;;;;;;;;;;-1.12;58.89;98706.47;5098692;28;19928;-54
2023/02/27 08:24:09;;;;;;;;;;;;;;;-0.96;58.36;98699.78;5104789;28;19923;-55
2023/02/27 08:26:38;;;;;;;;;;;;;;;-0.76;57.98;98712.94;5102298;28;19924;-55
2023/02/27 08:29:07;;;;;;;;;;;;;;;-0.43;56.63;98711.81;5107581;28;19924;-56
2023/02/27 08:31:35;;;;;;;;;;;;;;;-0.40;56.36;98708.72;5085805;28;19955;-54
2023/02/27 08:34:04;;;;;;;;;;;;;;;-0.26;56.34;98710.22;5084714;28;20403;-54
2023/02/27 08:36:37;;;;;;;;;;;;;;;-0.33;55.46;98709.47;5098082;28;19967;-54
2023/02/27 08:39:05;;;;;;;;;;;;;;;-0.39;56.25;98715.69;5105397;28;19927;-55
2023/02/27 08:41:33;;;;;;;;;;;;;;;-0.20;56.40;98714.69;5092374;28;19950;-54
2023/02/27 08:44:28;;;;;;;;;;;;;;;-0.04;55.58;98708.75;5097806;28;20428;-55
2023/02/27 08:46:58;;;;;;;;;;;;;;;0.12;54.15;98711.84;5098355;28;19928;-54
2023/02/27 08:49:26;;;;;;;;;;;;;;;0.28;54.31;98713.09;5103968;28;20245;-54
2023/02/27 08:51:54;;;;;;;;;;;;;;;0.10;54.01;98712.06;5094810;28;19924;-54
2023/02/27 08:54:22;;;;;;;;;;;;;;;-0.15;54.53;98708.69;5107129;28;19923;-55
2023/02/27 08:59:43;;;;;;;;;;;;;;;-0.08;53.40;98715.56;5103005;28;19932;-55
2023/02/27 09:02:12;;;;;;;;;;;;;;;0.03;53.22;98716.66;5102784;28;19924;-54
2023/02/27 09:04:43;;;;;;;;;;;;;;;0.17;53.41;98720.03;5102147;28;20009;-54
2023/02/27 09:07:11;;;;;;;;;;;;;;;0.15;53.54;98725.56;5097981;28;19931;-56
2023/02/27 09:09:38;;;;;;;;;;;;;;;0.38;53.05;98727.56;5104325;28;20272;-54
2023/02/27 09:12:07;;;;;;;;;;;;;;;0.55;52.43;98716.25;5108611;28;20293;-54
2023/02/27 09:14:35;;;;;;;;;;;;;;;0.77;50.95;98718.16;5088647;28;19924;-54
2023/02/27 09:17:03;;;;;;;;;;;;;;;0.92;51.00;98733.81;5100342;28;20720;-54
2023/02/27 09:19:35;;;;;;;;;;;;;;;0.57;51.12;98735.53;5106720;28;19923;-57
2023/02/27 09:22:06;;;;;;;;;;;;;;;0.76;50.91;98723.75;5105355;28;19924;-55
2023/02/27 09:24:34;;;;;;;;;;;;;;;0.93;50.06;98727.41;5104098;28;19928;-54
2023/02/27 09:27:03;;;;;;;;;;;;;;;0.94;50.79;98729.03;5105531;28;20300;-54
2023/02/27 09:29:31;;;;;;;;;;;;;;;1.11;50.31;98733.72;5092405;28;19935;-54
2023/02/27 09:31:59;;;;;;;;;;;;;;;1.09;49.67;98736.63;5100734;28;19924;-54
2023/02/27 09:34:28;;;;;;;;;;;;;;;1.11;49.74;98741.75;5105397;28;19984;-54
2023/02/27 09:37:00;;;;;;;;;;;;;;;0.92;49.66;98738.34;5106651;28;20387;-54
2023/02/27 09:39:28;;;;;;;;;;;;;;;0.72;49.80;98735.94;5108585;28;19931;-54
2023/02/27 09:41:57;;;;;;;;;;;;;;;0.93;50.51;98742.66;5097553;28;19931;-54
2023/02/27 09:44:30;;;;;;;;;;;;;;;1.15;49.84;98754.44;5101568;28;19928;-55
2023/02/27 09:47:13;;;;;;;;;;;;;;;1.41;49.16;98744.38;5102429;28;19938;-54
2023/02/27 09:49:46;;;;;;;;;;;;;;;1.40;49.26;98756.94;5109900;28;19930;-54
2023/02/27 09:52:15;;;;;;;;;;;;;;;1.66;48.51;98752.19;5106344;28;19955;-54
2023/02/27 09:54:44;;;;;;;;;;;;;;;1.82;48.07;98760.34;5088740;28;19932;-54
2023/02/27 09:57:15;;;;;;;;;;;;;;;1.94;47.69;98749.59;5098950;28;19924;-54
2023/02/27 09:59:44;;;;;;;;;;;;;;;2.41;47.22;98754.88;5097153;28;19932;-55
2023/02/27 10:02:22;;;;;;;;;;;;;;;2.92;46.75;98758.53;5106197;28;19924;-54
2023/02/27 10:04:53;;;;;;;;;;;;;;;2.69;45.51;98745.22;5100553;28;20273;-54
2023/02/27 10:07:24;;;;;;;;;;;;;;;2.73;44.38;98731.09;5107203;28;19932;-54
2023/02/27 10:09:55;;;;;;;;;;;;;;;2.86;44.17;98749.56;5106025;28;19958;-54
2023/02/27 10:12:32;;;;;;;;;;;;;;;2.73;44.47;98757.09;5099019;28;19938;-55
2023/02/27 10:15:01;;;;;;;;;;;;;;;2.82;44.69;98761.00;5105304;28;19989;-54
2023/02/27 10:17:30;;;;;;;;;;;;;;;2.78;43.79;98754.53;5100801;28;20339;-54
2023/02/27 10:19:58;;;;;;;;;;;;;;;2.70;44.85;98754.88;5100038;28;22141;-54
2023/02/27 10:22:51;;;;;;;;;;;;;;;2.55;44.75;98761.56;5101915;28;19935;-54
2023/02/27 10:25:20;;;;;;;;;;;;;;;2.03;46.63;98755.44;5102525;28;19938;-54
2023/02/27 10:28:02;;;;;;;;;;;;;;;2.39;46.40;98751.59;5109046;28;19931;-54
2023/02/27 10:30:30;;;;;;;;;;;;;;;2.47;45.86;98753.94;5101621;28;19958;-54
2023/02/27 10:33:26;;;;;;;;;;;;;;;3.07;43.95;98753.44;5109486;28;19935;-54
2023/02/27 10:35:56;;;;;;;;;;;;;;;3.14;44.06;98754.09;5099474;28;19962;-54
2023/02/27 10:38:31;;;;;;;;;;;;;;;3.04;43.12;98756.63;5102146;28;19934;-54
2023/02/27 10:41:00;;;;;;;;;;;;;;;2.84;42.70;98756.25;5111838;28;19961;-54
2023/02/27 10:43:28;;;;;;;;;;;;;;;2.62;44.39;98759.59;5100369;28;19962;-54
2023/02/27 10:45:56;;;;;;;;;;;;;;;2.23;44.22;98768.44;5097354;28;19941;-54
2023/02/27 10:48:24;;;;;;;;;;;;;;;2.20;44.61;98771.59;5100875;28;19973;-54
2023/02/27 10:50:52;;;;;;;;;;;;;;;2.30;44.68;98764.59;5081633;28;20411;-54
2023/02/27 10:53:21;;;;;;;;;;;;;;;2.39;44.18;98769.56;5107170;28;19934;-54
2023/02/27 10:55:59;;;;;;;;;;;;;;;2.35;45.05;98782.66;5102328;28;19992;-55
2023/02/27 10:58:27;;;;;;;;;;;;;;;2.26;45.12;98776.81;5096611;28;19971;-55
2023/02/27 11:00:56;;;;;;;;;;;;;;;2.27;44.20;98780.31;5102951;28;19932;-55
2023/02/27 11:03:25;;;;;;;;;;;;;;;2.10;44.17;98773.00;5096945;28;19934;-54
2023/02/27 11:05:54;;;;;;;;;;;;;;;2.19;43.53;98778.03;5097725;28;19938;-54
2023/02/27 11:08:23;;;;;;;;;;;;;;;2.30;43.81;98780.66;5107208;28;19965;-54
2023/02/27 11:10:55;;;;;;;;;;;;;;;2.41;43.54;98767.47;5100802;28;20179;-54
2023/02/27 11:13:25;;;;;;;;;;;;;;;2.40;42.67;98768.50;5097656;28;19935;-54
2023/02/27 11:16:01;;;;;;;;;;;;;;;2.28;43.62;98761.31;5107612;28;19985;-55
2023/02/27 11:18:30;;;;;;;;;;;;;;;2.27;43.77;98761.56;5108101;28;19981;-55
2023/02/27 11:21:18;;;;;;;;;;;;;;;2.07;43.88;98773.47;5109836;28;20379;-54
2023/02/27 11:23:54;;;;;;;;;;;;;;;2.49;43.80;98756.34;5103670;28;19935;-54
2023/02/27 11:26:29;;;;;;;;;;;;;;;2.87;42.48;98753.06;5105538;28;19957;-54
2023/02/27 11:29:06;;;;;;;;;;;;;;;3.08;41.89;98754.25;5103869;28;19934;-54
2023/02/27 11:31:35;;;;;;;;;;;;;;;3.09;40.95;98745.97;5104991;28;19954;-54
2023/02/27 11:34:04;;;;;;;;;;;;;;;3.60;40.12;98740.59;5101535;28;19942;-54
2023/02/27 11:36:39;;;;;;;;;;;;;;;3.48;39.63;98742.56;5103564;28;19927;-54
2023/02/27 11:39:07;;;;;;;;;;;;;;;3.78;39.84;98745.72;5105327;28;19954;-55
2023/02/27 11:41:36;;;;;;;;;;;;;;;3.93;38.15;98729.78;5109192;28;20326;-54
2023/02/27 11:44:04;;;;;;;;;;;;;;;3.54;38.64;98725.47;5106402;28;19943;-55
2023/02/27 11:47:00;;;;;;;;;;;;;;;3.13;39.46;98730.97;5085153;28;19935;-54
2023/02/27 11:49:32;;;;;;;;;;;;;;;2.92;39.78;98733.56;5103027;28;19935;-55
2023/02/27 11:52:04;;;;;;;;;;;;;;;3.13;39.45;98733.66;5088881;28;19958;-55
2023/02/27 11:54:35;;;;;;;;;;;;;;;3.33;39.23;98733.19;5104569;28;19938;-54
2023/02/27 11:57:04;;;;;;;;;;;;;;;3.22;38.70;98735.97;5101663;28;19939;-54
2023/02/27 11:59:37;;;;;;;;;;;;;;;2.90;39.04;98733.81;5098146;28;20405;-54
2023/02/27 12:02:06;;;;;;;;;;;;;;;3.04;39.54;98728.97;5100312;28;19973;-54
2023/02/27 12:04:41;;;;;;;;;;;;;;;3.27;39.29;98730.69;5105923;28;19928;-55
2023/02/27 12:07:12;;;;;;;;;;;;;;;3.14;39.88;98731.78;5107714;28;19927;-55
2023/02/27 12:09:41;;;;;;;;;;;;;;;2.87;40.77;98720.84;5097480;28;19993;-55
2023/02/27 12:12:14;;;;;;;;;;;;;;;3.31;39.69;98713.03;5100707;28;19932;-61
2023/02/27 12:14:44;;;;;;;;;;;;;;;3.68;38.97;98716.81;5096483;28;20644;-55
2023/02/27 12:17:16;;;;;;;;;;;;;;;3.61;39.59;98718.03;5105207;28;19973;-55
2023/02/27 12:19:48;;;;;;;;;;;;;;;3.46;39.43;98712.41;5096346;28;19938;-55
2023/02/27 12:22:19;;;;;;;;;;;;;;;3.15;40.37;98712.78;5097438;28;19934;-54
2023/02/27 12:24:48;;;;;;;;;;;;;;;3.37;40.39;98712.84;5095412;28;19938;-56
2023/02/27 12:27:21;;;;;;;;;;;;;;;3.32;39.60;98711.97;5095831;28;19935;-54
2023/02/27 12:29:51;;;;;;;;;;;;;;;3.49;39.04;98707.38;5107577;28;19934;-54
2023/02/27 12:32:28;;;;;;;;;;;;;;;3.67;39.38;98704.44;5107681;28;19950;-54
2023/02/27 12:35:04;;;;;;;;;;;;;;;3.34;39.97;98713.31;5093200;28;19942;-54
2023/02/27 12:37:33;;;;;;;;;;;;;;;2.64;41.06;98705.69;5107964;28;19969;-54
2023/02/27 12:40:02;;;;;;;;;;;;;;;2.51;41.90;98706.00;5079482;28;19947;-54
2023/02/27 12:42:38;;;;;;;;;;;;;;;2.72;41.61;98707.19;5104851;28;19931;-54
2023/02/27 12:45:22;;;;;;;;;;;;;;;2.80;40.98;98698.72;5099322;28;19964;-55
2023/02/27 12:47:53;;;;;;;;;;;;;;;2.78;41.42;98701.66;5095619;28;19934;-54
2023/02/27 12:50:23;;;;;;;;;;;;;;;2.59;41.10;98706.41;5100098;28;19924;-54
2023/02/27 12:53:01;;;;;;;;;;;;;;;2.65;41.11;98696.56;5090607;28;20348;-54
2023/02/27 12:55:31;;;;;;;;;;;;;;;2.56;41.73;98706.09;5099491;28;19928;-54
2023/02/27 12:58:15;;;;;;;;;;;;;;;3.05;41.66;98707.22;5100163;28;20415;-54
2023/02/27 13:00:45;;;;;;;;;;;;;;;3.34;41.33;98691.84;5081885;28;19928;-55
2023/02/27 13:03:13;;;;;;;;;;;;;;;3.24;39.80;98693.56;5100990;28;20348;-54
2023/02/27 13:05:44;;;;;;;;;;;;;;;3.49;39.88;98688.56;5093967;28;19932;-54
2023/02/27 13:08:14;;;;;;;;;;;;;;;3.82;38.76;98689.56;5103825;28;19961;-54
2023/02/27 13:10:43;;;;;;;;;;;;;;;4.19;38.77;98685.22;5106229;28;20452;-54
2023/02/27 13:13:14;;;;;;;;;;;;;;;3.88;38.48;98677.81;5092720;28;20292;-55
2023/02/27 13:15:43;;;;;;;;;;;;;;;4.02;39.07;98683.66;5104475;28;19973;-54
2023/02/27 13:18:18;;;;;;;;;;;;;;;3.83;38.43;98683.13;5097175;28;19934;-55
2023/02/27 13:20:48;;;;;;;;;;;;;;;3.84;37.94;98680.22;5100586;28;19931;-55
2023/02/27 13:23:19;;;;;;;;;;;;;;;3.77;37.97;98684.94;5093459;28;19949;-54
2023/02/27 13:25:50;;;;;;;;;;;;;;;3.87;37.94;98692.34;5107817;28;19934;-55
2023/02/27 13:28:19;;;;;;;;;;;;;;;3.96;37.26;98693.53;5103443;28;19934;-55
2023/02/27 13:30:51;;;;;;;;;;;;;;;3.98;37.32;98683.34;5088049;28;19924;-55
2023/02/27 13:33:21;;;;;;;;;;;;;;;3.97;37.00;98681.72;5098362;28;19957;-54
2023/02/27 13:35:51;;;;;;;;;;;;;;;4.24;37.07;98689.03;5098646;28;19939;-54